Central Oregon RPC :: LAKEVIEW DROP

liberation: 2021-06-13  07:00     latitude: 42.192405     longitude: -120.356890 79 birds
# LOFT PRING MILES ARRIVAL SPEED ToWin
1 TOPIGEONUSA AU18-CORP-4272 153.345 2021-06-13 09:29:59.836 1799.282 00:00:00
2 AMERICAN LOFT AU19-CORP-4673 150.054 2021-06-13 09:27:32.711 1789.927 00:00:46
3 AMERICAN LOFT AU19-CORP-4605 150.054 2021-06-13 09:27:33.792 1789.708 00:00:47
4 AMERICAN LOFT AU19-CORP-4706 150.054 2021-06-13 09:27:36.826 1789.095 00:00:50
5 RUETER FAMILY LOFT AU20-OTC-110 180.003 2021-06-13 09:57:14.630 1787.398 00:01:10
6 RUETER FAMILY LOFT AU18-CORP-2744 180.003 2021-06-13 09:57:15.187 1787.305 00:01:11
7 STEELE LOFT AU20-BORD-20058 153.652 2021-06-13 09:32:23.038 1774.640 00:02:05
8 ROCKY TOP AU18-CORP-3385 146.242 2021-06-13 09:25:03.657 1774.326 00:02:01
9 STEELE LOFT AU2019-AVI-19532 153.652 2021-06-13 09:32:25.099 1774.240 00:02:07
10 TOPIGEONUSA AU19-CORP-4907 153.345 2021-06-13 09:32:13.422 1772.965 00:02:14
11 TOPIGEONUSA AU19-CORP-5134 153.345 2021-06-13 09:32:14.099 1772.834 00:02:14
12 ROCKY TOP AU20-CORP-4433 146.242 2021-06-13 09:25:11.739 1772.680 00:02:09
13 TOPIGEONUSA AU19-CORP-4991 153.345 2021-06-13 09:32:15.256 1772.610 00:02:15
14 RUETER FAMILY LOFT AU18-CORP-2684 180.003 2021-06-13 10:00:48.766 1752.118 00:04:44
15 STEELE LOFT AU20-CORP-5035 153.652 2021-06-13 09:34:26.114 1751.069 00:04:08
16 STEELE LOFT AU19-CORP-4025 153.652 2021-06-13 09:34:30.593 1750.223 00:04:13
17 TOPIGEONUSA AU18-CORP-4253 153.345 2021-06-13 09:34:55.153 1742.117 00:04:55
18 TOPIGEONUSA AU19-CORP-5136 153.345 2021-06-13 09:34:55.549 1742.043 00:04:56
19 TOPIGEONUSA AU19-CORP-4912 153.345 2021-06-13 09:34:56.360 1741.891 00:04:57
20 TOPIGEONUSA AU19-CORP-5124 153.345 2021-06-13 09:34:58.280 1741.531 00:04:58
21 TOPIGEONUSA AU17-CAPT-0054 153.345 2021-06-13 09:34:59.938 1741.220 00:05:00
22 TOPIGEONUSA AU19-CORP-4938 153.345 2021-06-13 09:35:01.759 1740.880 00:05:02
23 TOPIGEONUSA AU19-CORP-5140 153.345 2021-06-13 09:35:02.297 1740.779 00:05:02
24 AMERICAN LOFT AU18-CORP-2549 150.054 2021-06-13 09:31:51.071 1739.171 00:05:04
25 AMERICAN LOFT AU19-CORP-4635 150.054 2021-06-13 09:31:56.200 1738.192 00:05:10
26 AMERICAN LOFT AU19-CORP-4699 150.054 2021-06-13 09:32:02.412 1737.008 00:05:16
27 RUETER FAMILY LOFT AU19-CORP-5331 180.003 2021-06-13 10:02:37.001 1734.810 00:06:33
28 ROCKY TOP AU19-ARPU-29027 146.242 2021-06-13 09:28:26.042 1734.006 00:05:23
29 ROCKY TOP AU17-OTC-0317 146.242 2021-06-13 09:28:26.418 1733.932 00:05:23
30 STEELE LOFT AU19-JEDD-1973 153.652 2021-06-13 09:36:05.145 1732.552 00:05:47
31 TOPIGEONUSA AU19-CORP-4908 153.345 2021-06-13 09:35:49.249 1732.037 00:05:49
32 TOPIGEONUSA AU18-CORP-3173 153.345 2021-06-13 09:35:54.481 1731.068 00:05:55
33 TOPIGEONUSA AU19-CORP-4913 153.345 2021-06-13 09:35:57.194 1730.566 00:05:57
34 ROCKY TOP AU20-CORP-4404 146.242 2021-06-13 09:28:49.046 1729.538 00:05:46
35 STEELE LOFT AU20-JEDD-14784 153.652 2021-06-13 09:36:40.449 1726.045 00:06:23
36 TOPIGEONUSA AU19-CORP-5151 153.345 2021-06-13 09:37:20.195 1715.350 00:07:20
37 RUETER FAMILY LOFT AU19-CORP-5377 180.003 2021-06-13 10:05:56.288 1703.821 00:09:52
38 STEELE LOFT AU15-CORP-3873 153.652 2021-06-13 09:39:22.632 1696.772 00:09:05
39 STEELE LOFT AU17-PNW-5230 153.652 2021-06-13 09:39:41.568 1693.418 00:09:24
40 STEELE LOFT AU18-CORP-2936 153.652 2021-06-13 09:39:46.617 1692.526 00:09:29
41 STEELE LOFT AU18-CORP-2938 153.652 2021-06-13 09:40:37.226 1683.638 00:10:19
42 STEELE LOFT AU19-AVI-19522 153.652 2021-06-13 09:40:43.130 1682.607 00:10:25
43 STEELE LOFT AU19-CORP-4043 153.652 2021-06-13 09:40:47.839 1681.786 00:10:30
44 AMERICAN LOFT AU19-CORP-4620 150.054 2021-06-13 09:38:20.994 1667.795 00:11:34
45 STEELE LOFT AU18-CORP-4299 153.652 2021-06-13 09:42:14.457 1666.822 00:11:57
46 AMERICAN LOFT AU19-CORP-4638 150.054 2021-06-13 09:39:11.732 1658.935 00:12:25
47 RUETER FAMILY LOFT AU19-CORP-5456 180.003 2021-06-13 10:11:15.480 1656.429 00:15:11
48 RUETER FAMILY LOFT AU19-CORP-5250 180.003 2021-06-13 10:11:16.907 1656.223 00:15:13
49 ROCKY TOP AU18-CORP-3335 146.242 2021-06-13 09:35:37.633 1653.859 00:12:35
50 STEELE LOFT AU2019-AVI-19519 153.652 2021-06-13 09:44:37.649 1642.658 00:14:20
51 STEELE LOFT AU19-CORP-4000 153.652 2021-06-13 09:45:47.328 1631.152 00:15:30
52 RUETER FAMILY LOFT AU19-CORP-5477 180.003 2021-06-13 10:14:43.484 1626.939 00:18:39
53 STEELE LOFT AU16-CORP-7738 153.652 2021-06-13 09:46:32.824 1623.725 00:16:15
54 TOPIGEONUSA AU16-CORP-7994 153.345 2021-06-13 09:46:50.652 1617.601 00:16:51
55 RUETER FAMILY LOFT AU19-CORP-5447 180.003 2021-06-13 10:16:02.847 1615.962 00:19:58
56 AMERICAN LOFT AU19-CORP-4681 150.054 2021-06-13 09:46:31.329 1585.946 00:19:45
57 RUETER FAMILY LOFT AU19-CORP-5330 180.003 2021-06-13 10:21:35.603 1571.506 00:25:31
58 AMERICAN LOFT AU19-CORP-4643 150.054 2021-06-13 09:49:51.001 1554.872 00:23:04
59 RUETER FAMILY LOFT AU19-CORP-5344 180.003 2021-06-13 10:24:21.677 1550.222 00:28:17
60 RUETER FAMILY LOFT AU19-CORP-5310 180.003 2021-06-13 10:26:09.311 1536.732 00:30:05
61 STEELE LOFT AU19-CORP-4044 153.652 2021-06-13 09:56:06.623 1535.552 00:25:49
62 ROCKY TOP AU19-ARPU-29012 146.242 2021-06-13 09:47:37.295 1535.515 00:24:34
63 STEELE LOFT AU16-CORP-7920 153.652 2021-06-13 09:56:13.071 1534.616 00:25:55
64 AMERICAN LOFT AU19-CORP-4698 150.054 2021-06-13 09:54:35.888 1512.588 00:27:49
65 STEELE LOFT AU19-CORP-4031 153.652 2021-06-13 10:00:07.410 1501.341 00:29:50
66 STEELE LOFT AU16-CORP-7939 153.652 2021-06-13 10:06:23.188 1450.892 00:36:05
67 STEELE LOFT AU19-CORP-4033 153.652 2021-06-13 10:18:08.215 1364.848 00:47:50
68 STEELE LOFT AU14-CORP-0482 153.652 2021-06-13 10:40:28.208 1226.591 01:10:10
69 STEELE LOFT AU19-CORP-4029 153.652 2021-06-13 11:43:36.085 953.545 02:13:18
70 STEELE LOFT AU19-CORP-4019 153.652 2021-06-13 12:49:12.610 774.395 03:18:55
71 STEELE LOFT AU16-CORP-8082 153.652 2021-06-13 15:52:06.112 508.224 06:21:48
72 RUETER FAMILY LOFT AU19-CORP-5413 180.003 2021-06-13 19:23:20.374 426.192 09:27:16
73 STEELE LOFT AU18-CORP-2984 153.652 2021-06-14 06:09:39.256 292.695 12:53:37
ROCKY TOP AU14-CORP-1542 0 0000-00-00 00:00:00.000 0.000 00:00:00
RUETER FAMILY LOFT AU19-CORP-5455 0 0000-00-00 00:00:00.000 0.000 00:00:00
TIM GRAVES AU14-CORP-1963 0 0000-00-00 00:00:00.000 0.000 00:00:00
TIM GRAVES AU15-ARPU-14510 0 0000-00-00 00:00:00.000 0.000 00:00:00
TIM GRAVES AU17-CORP-2034 0 0000-00-00 00:00:00.000 0.000 00:00:00
TIM GRAVES AU17-SWWR-7335 0 0000-00-00 00:00:00.000 0.000 00:00:00